sensor_id;sensor_type;location;lat;lon;timestamp;pressure;altitude;pressure_sealevel;temperature;humidity
4745;BME280;2386;42.138;24.746;2022-11-27T00:01:20;100725.22;;;7.82;74.20
4745;BME280;2386;42.138;24.746;2022-11-27T00:03:46;100722.69;;;7.66;77.21
4745;BME280;2386;42.138;24.746;2022-11-27T00:06:20;100726.53;;;7.72;75.48
4745;BME280;2386;42.138;24.746;2022-11-27T00:08:46;100727.63;;;7.77;75.13
4745;BME280;2386;42.138;24.746;2022-11-27T00:11:15;100725.50;;;7.87;74.11
4745;BME280;2386;42.138;24.746;2022-11-27T00:13:41;100714.69;;;7.87;74.82
4745;BME280;2386;42.138;24.746;2022-11-27T00:16:07;100722.34;;;7.84;75.69
4745;BME280;2386;42.138;24.746;2022-11-27T00:21:54;100728.50;;;7.93;76.16
4745;BME280;2386;42.138;24.746;2022-11-27T00:24:20;100735.56;;;7.94;76.29
4745;BME280;2386;42.138;24.746;2022-11-27T00:26:45;100736.47;;;7.71;77.29
4745;BME280;2386;42.138;24.746;2022-11-27T00:29:11;100737.69;;;7.69;79.35
4745;BME280;2386;42.138;24.746;2022-11-27T00:31:36;100730.25;;;7.71;78.30
4745;BME280;2386;42.138;24.746;2022-11-27T00:34:04;100743.06;;;7.54;78.89
4745;BME280;2386;42.138;24.746;2022-11-27T00:36:31;100731.69;;;7.44;79.98
4745;BME280;2386;42.138;24.746;2022-11-27T00:38:57;100741.03;;;7.56;80.30
4745;BME280;2386;42.138;24.746;2022-11-27T00:41:25;100739.72;;;7.52;81.26
4745;BME280;2386;42.138;24.746;2022-11-27T00:43:52;100740.94;;;7.64;81.60
4745;BME280;2386;42.138;24.746;2022-11-27T00:46:21;100747.56;;;7.76;79.29
4745;BME280;2386;42.138;24.746;2022-11-27T00:48:46;100745.69;;;7.62;78.81
4745;BME280;2386;42.138;24.746;2022-11-27T00:51:16;100751.81;;;7.56;78.88
4745;BME280;2386;42.138;24.746;2022-11-27T00:53:42;100754.41;;;7.49;79.64
4745;BME280;2386;42.138;24.746;2022-11-27T00:56:09;100753.81;;;7.24;79.06
4745;BME280;2386;42.138;24.746;2022-11-27T00:58:38;100757.72;;;6.99;80.13
4745;BME280;2386;42.138;24.746;2022-11-27T01:01:05;100754.84;;;7.01;80.80
4745;BME280;2386;42.138;24.746;2022-11-27T01:03:31;100746.84;;;6.84;80.74
4745;BME280;2386;42.138;24.746;2022-11-27T01:06:04;100758.59;;;6.91;80.71
4745;BME280;2386;42.138;24.746;2022-11-27T01:08:30;100746.75;;;7.01;80.94
4745;BME280;2386;42.138;24.746;2022-11-27T01:10:56;100745.25;;;6.98;81.42
4745;BME280;2386;42.138;24.746;2022-11-27T01:13:28;100736.06;;;7.07;80.86
4745;BME280;2386;42.138;24.746;2022-11-27T01:18:28;100739.72;;;7.14;81.14
4745;BME280;2386;42.138;24.746;2022-11-27T01:20:54;100742.84;;;7.26;81.05
4745;BME280;2386;42.138;24.746;2022-11-27T01:23:21;100745.28;;;7.36;79.78
4745;BME280;2386;42.138;24.746;2022-11-27T01:25:47;100740.34;;;7.39;79.21
4745;BME280;2386;42.138;24.746;2022-11-27T01:28:13;100736.06;;;7.30;80.65
4745;BME280;2386;42.138;24.746;2022-11-27T01:30:38;100739.78;;;7.29;81.42
4745;BME280;2386;42.138;24.746;2022-11-27T01:33:04;100720.63;;;7.39;79.06
4745;BME280;2386;42.138;24.746;2022-11-27T01:35:29;100725.94;;;7.09;78.21
4745;BME280;2386;42.138;24.746;2022-11-27T01:37:55;100733.06;;;7.02;80.04
4745;BME280;2386;42.138;24.746;2022-11-27T01:40:21;100732.34;;;7.08;79.39
4745;BME280;2386;42.138;24.746;2022-11-27T01:42:46;100729.94;;;7.13;78.71
4745;BME280;2386;42.138;24.746;2022-11-27T01:45:14;100733.00;;;7.10;81.12
4745;BME280;2386;42.138;24.746;2022-11-27T01:47:52;100729.94;;;7.13;80.89
4745;BME280;2386;42.138;24.746;2022-11-27T01:50:25;100735.34;;;6.90;79.79
4745;BME280;2386;42.138;24.746;2022-11-27T01:52:53;100731.75;;;6.98;80.60
4745;BME280;2386;42.138;24.746;2022-11-27T01:55:22;100730.19;;;7.04;80.00
4745;BME280;2386;42.138;24.746;2022-11-27T02:01:11;100722.03;;;7.12;82.09
4745;BME280;2386;42.138;24.746;2022-11-27T02:03:36;100730.38;;;7.25;80.15
4745;BME280;2386;42.138;24.746;2022-11-27T02:06:02;100725.88;;;7.17;79.76
4745;BME280;2386;42.138;24.746;2022-11-27T02:08:27;100726.66;;;7.03;80.78
4745;BME280;2386;42.138;24.746;2022-11-27T02:11:02;100728.16;;;7.06;80.26
4745;BME280;2386;42.138;24.746;2022-11-27T02:13:47;100721.97;;;7.20;81.06
4745;BME280;2386;42.138;24.746;2022-11-27T02:16:32;100726.09;;;7.31;80.51
4745;BME280;2386;42.138;24.746;2022-11-27T02:21:51;100728.75;;;7.16;82.15
4745;BME280;2386;42.138;24.746;2022-11-27T02:29:29;100724.41;;;7.30;79.81
4745;BME280;2386;42.138;24.746;2022-11-27T02:32:14;100720.13;;;7.20;81.01
4745;BME280;2386;42.138;24.746;2022-11-27T02:39:44;100743.59;;;7.35;79.18
4745;BME280;2386;42.138;24.746;2022-11-27T02:42:18;100731.78;;;7.36;79.11
4745;BME280;2386;42.138;24.746;2022-11-27T02:44:49;100724.91;;;7.33;80.18
4745;BME280;2386;42.138;24.746;2022-11-27T02:47:17;100731.25;;;7.40;79.97
4745;BME280;2386;42.138;24.746;2022-11-27T02:49:44;100739.88;;;7.36;79.54
4745;BME280;2386;42.138;24.746;2022-11-27T02:52:11;100723.09;;;7.25;78.58
4745;BME280;2386;42.138;24.746;2022-11-27T02:54:39;100742.19;;;7.24;78.58
4745;BME280;2386;42.138;24.746;2022-11-27T02:57:07;100742.66;;;7.28;78.13
4745;BME280;2386;42.138;24.746;2022-11-27T02:59:35;100748.28;;;7.41;78.44
4745;BME280;2386;42.138;24.746;2022-11-27T03:02:05;100759.16;;;7.33;78.51
4745;BME280;2386;42.138;24.746;2022-11-27T03:04:43;100748.06;;;7.28;80.16
4745;BME280;2386;42.138;24.746;2022-11-27T03:07:43;100749.94;;;7.42;78.24
4745;BME280;2386;42.138;24.746;2022-11-27T03:10:17;100744.91;;;7.39;79.21
4745;BME280;2386;42.138;24.746;2022-11-27T03:12:46;100746.41;;;7.41;79.74
4745;BME280;2386;42.138;24.746;2022-11-27T03:15:12;100761.97;;;7.54;78.55
4745;BME280;2386;42.138;24.746;2022-11-27T03:17:50;100751.59;;;7.43;79.48
4745;BME280;2386;42.138;24.746;2022-11-27T03:20:25;100753.28;;;7.44;80.68
4745;BME280;2386;42.138;24.746;2022-11-27T03:22:54;100746.84;;;7.30;80.79
4745;BME280;2386;42.138;24.746;2022-11-27T03:25:21;100749.00;;;7.35;80.93
4745;BME280;2386;42.138;24.746;2022-11-27T03:27:53;100745.84;;;7.31;79.85
4745;BME280;2386;42.138;24.746;2022-11-27T03:30:20;100748.47;;;7.39;79.54
4745;BME280;2386;42.138;24.746;2022-11-27T03:32:45;100750.50;;;7.52;78.73
4745;BME280;2386;42.138;24.746;2022-11-27T03:35:13;100756.06;;;7.36;81.33
4745;BME280;2386;42.138;24.746;2022-11-27T03:37:40;100751.13;;;7.24;81.39
4745;BME280;2386;42.138;24.746;2022-11-27T03:40:07;100744.56;;;7.42;80.50
4745;BME280;2386;42.138;24.746;2022-11-27T03:42:35;100753.38;;;7.50;80.95
4745;BME280;2386;42.138;24.746;2022-11-27T03:45:12;100747.50;;;7.32;79.61
4745;BME280;2386;42.138;24.746;2022-11-27T03:50:16;100754.94;;;7.30;80.22
4745;BME280;2386;42.138;24.746;2022-11-27T03:52:52;100762.41;;;7.43;79.33
4745;BME280;2386;42.138;24.746;2022-11-27T03:55:53;100742.66;;;7.28;80.62
4745;BME280;2386;42.138;24.746;2022-11-27T04:00:51;100748.22;;;7.26;82.84
4745;BME280;2386;42.138;24.746;2022-11-27T04:03:22;100756.16;;;7.28;83.96
4745;BME280;2386;42.138;24.746;2022-11-27T04:05:49;100753.03;;;7.39;82.93
4745;BME280;2386;42.138;24.746;2022-11-27T04:08:14;100746.25;;;7.20;84.62
4745;BME280;2386;42.138;24.746;2022-11-27T04:10:39;100731.03;;;7.27;83.05
4745;BME280;2386;42.138;24.746;2022-11-27T04:13:05;100731.97;;;7.34;81.99
4745;BME280;2386;42.138;24.746;2022-11-27T04:15:30;100730.41;;;7.40;81.63
4745;BME280;2386;42.138;24.746;2022-11-27T04:17:56;100736.72;;;7.47;80.84
4745;BME280;2386;42.138;24.746;2022-11-27T04:20:21;100729.41;;;7.18;82.02
4745;BME280;2386;42.138;24.746;2022-11-27T04:22:46;100735.75;;;7.25;82.21
4745;BME280;2386;42.138;24.746;2022-11-27T04:25:12;100729.88;;;7.21;82.44
4745;BME280;2386;42.138;24.746;2022-11-27T04:27:37;100729.59;;;7.16;82.68
4745;BME280;2386;42.138;24.746;2022-11-27T04:30:03;100743.84;;;7.25;82.80
4745;BME280;2386;42.138;24.746;2022-11-27T04:32:28;100743.38;;;7.21;82.14
4745;BME280;2386;42.138;24.746;2022-11-27T04:34:54;100725.41;;;7.14;82.69
4745;BME280;2386;42.138;24.746;2022-11-27T04:37:19;100737.50;;;6.95;85.49
4745;BME280;2386;42.138;24.746;2022-11-27T04:39:44;100746.78;;;7.15;83.24
4745;BME280;2386;42.138;24.746;2022-11-27T04:45:31;100744.59;;;6.96;85.54
4745;BME280;2386;42.138;24.746;2022-11-27T04:47:57;100745.91;;;7.00;85.09
4745;BME280;2386;42.138;24.746;2022-11-27T04:50:22;100741.75;;;7.12;83.01
4745;BME280;2386;42.138;24.746;2022-11-27T04:56:10;100741.63;;;6.83;87.58
4745;BME280;2386;42.138;24.746;2022-11-27T04:58:35;100749.31;;;6.94;87.66
4745;BME280;2386;42.138;24.746;2022-11-27T05:01:00;100749.09;;;6.50;86.47
4745;BME280;2386;42.138;24.746;2022-11-27T05:03:26;100755.16;;;6.13;89.00
4745;BME280;2386;42.138;24.746;2022-11-27T05:05:55;100754.47;;;6.19;90.02
4745;BME280;2386;42.138;24.746;2022-11-27T05:08:21;100742.91;;;6.41;90.16
4745;BME280;2386;42.138;24.746;2022-11-27T05:11:18;100742.78;;;6.66;87.96
4745;BME280;2386;42.138;24.746;2022-11-27T05:13:43;100761.94;;;6.71;89.29
4745;BME280;2386;42.138;24.746;2022-11-27T05:16:09;100767.78;;;6.51;87.60
4745;BME280;2386;42.138;24.746;2022-11-27T05:18:34;100750.78;;;6.51;89.10
4745;BME280;2386;42.138;24.746;2022-11-27T05:21:09;100756.69;;;6.46;90.59
4745;BME280;2386;42.138;24.746;2022-11-27T05:26:56;100769.75;;;6.66;88.95
4745;BME280;2386;42.138;24.746;2022-11-27T05:29:22;100768.81;;;6.73;88.13
4745;BME280;2386;42.138;24.746;2022-11-27T05:31:49;100766.38;;;6.64;89.50
4745;BME280;2386;42.138;24.746;2022-11-27T05:34:14;100782.56;;;6.64;88.95
4745;BME280;2386;42.138;24.746;2022-11-27T05:36:40;100768.41;;;6.62;90.18
4745;BME280;2386;42.138;24.746;2022-11-27T05:39:07;100770.59;;;6.89;88.74
4745;BME280;2386;42.138;24.746;2022-11-27T05:41:34;100759.38;;;7.00;86.31
4745;BME280;2386;42.138;24.746;2022-11-27T05:44:00;100772.25;;;6.90;86.83
4745;BME280;2386;42.138;24.746;2022-11-27T05:46:26;100771.97;;;6.85;88.99
4745;BME280;2386;42.138;24.746;2022-11-27T05:48:51;100772.88;;;7.00;87.25
4745;BME280;2386;42.138;24.746;2022-11-27T05:51:17;100763.41;;;7.04;86.25
4745;BME280;2386;42.138;24.746;2022-11-27T05:53:43;100776.84;;;7.12;83.99
4745;BME280;2386;42.138;24.746;2022-11-27T05:56:12;100789.53;;;7.27;82.95
4745;BME280;2386;42.138;24.746;2022-11-27T05:58:39;100798.72;;;7.17;82.35
4745;BME280;2386;42.138;24.746;2022-11-27T06:01:06;100801.91;;;7.21;83.04
4745;BME280;2386;42.138;24.746;2022-11-27T06:03:31;100785.47;;;7.08;82.80
4745;BME280;2386;42.138;24.746;2022-11-27T06:05:57;100789.78;;;6.94;82.24
4745;BME280;2386;42.138;24.746;2022-11-27T06:08:22;100792.06;;;7.05;83.62
4745;BME280;2386;42.138;24.746;2022-11-27T06:10:48;100801.47;;;7.09;84.10
4745;BME280;2386;42.138;24.746;2022-11-27T06:13:14;100803.16;;;7.33;82.39
4745;BME280;2386;42.138;24.746;2022-11-27T06:15:39;100802.03;;;7.28;82.74
4745;BME280;2386;42.138;24.746;2022-11-27T06:18:05;100799.97;;;7.30;83.19
4745;BME280;2386;42.138;24.746;2022-11-27T06:20:31;100794.28;;;7.24;83.03
4745;BME280;2386;42.138;24.746;2022-11-27T06:22:56;100785.78;;;7.50;81.18
4745;BME280;2386;42.138;24.746;2022-11-27T06:25:22;100797.28;;;7.67;79.91
4745;BME280;2386;42.138;24.746;2022-11-27T06:27:48;100789.97;;;7.53;79.38
4745;BME280;2386;42.138;24.746;2022-11-27T06:30:14;100802.63;;;7.38;79.44
4745;BME280;2386;42.138;24.746;2022-11-27T06:32:39;100803.53;;;7.45;80.17
4745;BME280;2386;42.138;24.746;2022-11-27T06:35:05;100802.53;;;7.46;80.35
4745;BME280;2386;42.138;24.746;2022-11-27T06:37:31;100799.16;;;7.44;78.58
4745;BME280;2386;42.138;24.746;2022-11-27T06:39:56;100797.22;;;7.38;79.76
4745;BME280;2386;42.138;24.746;2022-11-27T06:42:22;100792.13;;;7.20;79.29
4745;BME280;2386;42.138;24.746;2022-11-27T06:44:47;100801.13;;;7.50;79.74
4745;BME280;2386;42.138;24.746;2022-11-27T06:47:13;100797.94;;;7.69;79.06
4745;BME280;2386;42.138;24.746;2022-11-27T06:49:38;100794.28;;;7.62;79.44
4745;BME280;2386;42.138;24.746;2022-11-27T06:52:04;100803.41;;;7.61;80.60
4745;BME280;2386;42.138;24.746;2022-11-27T06:54:29;100811.72;;;7.74;80.70
4745;BME280;2386;42.138;24.746;2022-11-27T06:56:54;100805.56;;;7.66;78.91
4745;BME280;2386;42.138;24.746;2022-11-27T06:59:20;100800.88;;;7.59;81.30
4745;BME280;2386;42.138;24.746;2022-11-27T07:01:45;100808.91;;;7.68;82.15
4745;BME280;2386;42.138;24.746;2022-11-27T07:04:12;100793.66;;;7.75;79.19
4745;BME280;2386;42.138;24.746;2022-11-27T07:06:38;100783.78;;;7.67;79.55
4745;BME280;2386;42.138;24.746;2022-11-27T07:09:04;100796.66;;;7.80;79.35
4745;BME280;2386;42.138;24.746;2022-11-27T07:11:30;100773.56;;;7.77;79.76
4745;BME280;2386;42.138;24.746;2022-11-27T07:13:58;100800.28;;;7.72;79.77
4745;BME280;2386;42.138;24.746;2022-11-27T07:16:24;100796.19;;;7.76;81.19
4745;BME280;2386;42.138;24.746;2022-11-27T07:18:52;100802.16;;;7.86;80.67
4745;BME280;2386;42.138;24.746;2022-11-27T07:21:19;100804.41;;;7.98;79.42
4745;BME280;2386;42.138;24.746;2022-11-27T07:23:45;100803.97;;;8.09;79.48
4745;BME280;2386;42.138;24.746;2022-11-27T07:26:13;100808.34;;;8.10;78.33
4745;BME280;2386;42.138;24.746;2022-11-27T07:28:39;100806.56;;;8.02;78.34
4745;BME280;2386;42.138;24.746;2022-11-27T07:31:08;100808.34;;;8.10;79.10
4745;BME280;2386;42.138;24.746;2022-11-27T07:33:33;100796.78;;;8.01;79.04
4745;BME280;2386;42.138;24.746;2022-11-27T07:35:59;100807.47;;;8.24;78.02
4745;BME280;2386;42.138;24.746;2022-11-27T07:38:25;100806.22;;;8.35;77.50
4745;BME280;2386;42.138;24.746;2022-11-27T07:40:50;100798.34;;;8.25;79.01
4745;BME280;2386;42.138;24.746;2022-11-27T07:43:16;100807.22;;;8.48;78.52
4745;BME280;2386;42.138;24.746;2022-11-27T07:45:41;100801.31;;;8.30;79.63
4745;BME280;2386;42.138;24.746;2022-11-27T07:48:07;100793.06;;;8.17;77.74
4745;BME280;2386;42.138;24.746;2022-11-27T07:50:32;100795.09;;;8.44;77.11
4745;BME280;2386;42.138;24.746;2022-11-27T07:52:58;100804.53;;;8.48;78.70
4745;BME280;2386;42.138;24.746;2022-11-27T07:55:23;100812.09;;;8.38;76.94
4745;BME280;2386;42.138;24.746;2022-11-27T07:57:48;100804.91;;;8.16;77.26
4745;BME280;2386;42.138;24.746;2022-11-27T08:00:17;100798.75;;;8.07;77.91
4745;BME280;2386;42.138;24.746;2022-11-27T08:02:43;100809.19;;;8.10;78.31
4745;BME280;2386;42.138;24.746;2022-11-27T08:05:08;100809.47;;;8.15;78.75
4745;BME280;2386;42.138;24.746;2022-11-27T08:07:34;100800.53;;;8.15;80.25
4745;BME280;2386;42.138;24.746;2022-11-27T08:09:59;100810.69;;;8.42;78.94
4745;BME280;2386;42.138;24.746;2022-11-27T08:15:46;100800.78;;;8.64;78.35
4745;BME280;2386;42.138;24.746;2022-11-27T08:18:12;100804.03;;;8.74;78.79
4745;BME280;2386;42.138;24.746;2022-11-27T08:20:37;100790.97;;;8.78;76.80
4745;BME280;2386;42.138;24.746;2022-11-27T08:26:25;100806.00;;;8.51;76.31
4745;BME280;2386;42.138;24.746;2022-11-27T08:28:54;100790.19;;;8.84;76.19
4745;BME280;2386;42.138;24.746;2022-11-27T08:31:20;100792.75;;;8.92;77.12
4745;BME280;2386;42.138;24.746;2022-11-27T08:33:46;100797.88;;;9.02;76.59
4745;BME280;2386;42.138;24.746;2022-11-27T08:36:11;100789.69;;;9.16;77.13
4745;BME280;2386;42.138;24.746;2022-11-27T08:38:37;100787.56;;;9.33;73.66
4745;BME280;2386;42.138;24.746;2022-11-27T08:41:05;100782.41;;;9.38;74.06
4745;BME280;2386;42.138;24.746;2022-11-27T08:43:31;100791.56;;;9.59;72.57
4745;BME280;2386;42.138;24.746;2022-11-27T08:45:57;100792.06;;;9.47;71.99
4745;BME280;2386;42.138;24.746;2022-11-27T08:48:23;100789.81;;;9.08;73.16
4745;BME280;2386;42.138;24.746;2022-11-27T08:50:50;100797.28;;;9.06;74.70
4745;BME280;2386;42.138;24.746;2022-11-27T08:53:16;100793.63;;;9.35;75.53
4745;BME280;2386;42.138;24.746;2022-11-27T08:55:42;100782.03;;;9.41;76.02
4745;BME280;2386;42.138;24.746;2022-11-27T08:58:07;100786.06;;;9.52;73.15
4745;BME280;2386;42.138;24.746;2022-11-27T09:00:34;100788.59;;;9.32;72.36
4745;BME280;2386;42.138;24.746;2022-11-27T09:03:00;100782.47;;;9.45;73.21
4745;BME280;2386;42.138;24.746;2022-11-27T09:05:26;100770.88;;;9.51;72.00
4745;BME280;2386;42.138;24.746;2022-11-27T09:07:52;100784.59;;;9.77;70.24
4745;BME280;2386;42.138;24.746;2022-11-27T09:10:18;100778.13;;;9.78;72.06
4745;BME280;2386;42.138;24.746;2022-11-27T09:12:43;100773.69;;;9.99;70.92
4745;BME280;2386;42.138;24.746;2022-11-27T09:15:10;100775.84;;;10.10;69.29
4745;BME280;2386;42.138;24.746;2022-11-27T09:17:35;100771.88;;;10.06;68.11
4745;BME280;2386;42.138;24.746;2022-11-27T09:20:01;100765.63;;;9.77;68.73
4745;BME280;2386;42.138;24.746;2022-11-27T09:22:26;100758.72;;;10.03;69.37
4745;BME280;2386;42.138;24.746;2022-11-27T09:24:51;100765.88;;;10.17;69.49
4745;BME280;2386;42.138;24.746;2022-11-27T09:27:17;100752.03;;;10.33;67.20
4745;BME280;2386;42.138;24.746;2022-11-27T09:29:42;100757.69;;;10.38;68.14
4745;BME280;2386;42.138;24.746;2022-11-27T09:32:07;100736.88;;;10.11;66.93
4745;BME280;2386;42.138;24.746;2022-11-27T09:34:33;100741.69;;;10.15;67.61
4745;BME280;2386;42.138;24.746;2022-11-27T09:36:58;100745.09;;;10.24;68.87
4745;BME280;2386;42.138;24.746;2022-11-27T09:39:24;100722.59;;;10.30;67.57
4745;BME280;2386;42.138;24.746;2022-11-27T09:41:56;100723.03;;;10.34;67.03
4745;BME280;2386;42.138;24.746;2022-11-27T09:44:33;100711.84;;;10.57;66.84
4745;BME280;2386;42.138;24.746;2022-11-27T09:49:49;100704.28;;;10.39;65.07
4745;BME280;2386;42.138;24.746;2022-11-27T09:52:25;100715.19;;;10.59;65.79
4745;BME280;2386;42.138;24.746;2022-11-27T09:54:59;100710.63;;;10.72;63.25
4745;BME280;2386;42.138;24.746;2022-11-27T09:57:29;100709.56;;;10.60;63.46
4745;BME280;2386;42.138;24.746;2022-11-27T10:00:01;100704.81;;;10.82;63.23
4745;BME280;2386;42.138;24.746;2022-11-27T10:02:29;100682.06;;;10.83;63.03
4745;BME280;2386;42.138;24.746;2022-11-27T10:04:56;100686.84;;;10.81;62.59
4745;BME280;2386;42.138;24.746;2022-11-27T10:07:57;100692.50;;;10.93;62.53
4745;BME280;2386;42.138;24.746;2022-11-27T10:14:01;100691.69;;;11.18;62.41
4745;BME280;2386;42.138;24.746;2022-11-27T10:16:47;100687.72;;;11.28;62.13
4745;BME280;2386;42.138;24.746;2022-11-27T10:19:32;100689.38;;;11.35;60.63
4745;BME280;2386;42.138;24.746;2022-11-27T10:22:53;100682.91;;;11.43;59.75
4745;BME280;2386;42.138;24.746;2022-11-27T10:27:39;100685.00;;;11.54;60.24
4745;BME280;2386;42.138;24.746;2022-11-27T10:30:17;100679.34;;;11.56;59.80
4745;BME280;2386;42.138;24.746;2022-11-27T10:32:46;100667.19;;;11.71;58.72
4745;BME280;2386;42.138;24.746;2022-11-27T10:35:18;100664.25;;;11.86;57.45
4745;BME280;2386;42.138;24.746;2022-11-27T10:37:47;100657.09;;;11.92;57.40
4745;BME280;2386;42.138;24.746;2022-11-27T10:40:21;100657.72;;;12.00;56.91
4745;BME280;2386;42.138;24.746;2022-11-27T10:43:18;100660.38;;;12.13;55.76
4745;BME280;2386;42.138;24.746;2022-11-27T10:45:53;100651.00;;;12.03;55.51
4745;BME280;2386;42.138;24.746;2022-11-27T10:48:20;100642.09;;;11.82;56.75
4745;BME280;2386;42.138;24.746;2022-11-27T10:50:47;100633.78;;;11.51;57.89
4745;BME280;2386;42.138;24.746;2022-11-27T10:53:29;100629.16;;;11.58;56.77
4745;BME280;2386;42.138;24.746;2022-11-27T10:58:41;100627.81;;;11.94;56.22
4745;BME280;2386;42.138;24.746;2022-11-27T11:01:14;100622.81;;;11.91;55.98
4745;BME280;2386;42.138;24.746;2022-11-27T11:03:41;100621.09;;;12.03;55.76
4745;BME280;2386;42.138;24.746;2022-11-27T11:06:15;100609.13;;;12.10;55.58
4745;BME280;2386;42.138;24.746;2022-11-27T11:08:43;100614.38;;;12.05;53.15
4745;BME280;2386;42.138;24.746;2022-11-27T11:11:09;100601.06;;;11.91;53.69
4745;BME280;2386;42.138;24.746;2022-11-27T11:16:14;100604.47;;;11.66;54.30
4745;BME280;2386;42.138;24.746;2022-11-27T11:26:30;100593.81;;;11.71;51.57
4745;BME280;2386;42.138;24.746;2022-11-27T11:28:59;100590.69;;;11.61;52.37
4745;BME280;2386;42.138;24.746;2022-11-27T11:31:43;100584.97;;;11.11;53.16
4745;BME280;2386;42.138;24.746;2022-11-27T11:34:22;100589.94;;;11.28;53.94
4745;BME280;2386;42.138;24.746;2022-11-27T11:36:55;100587.41;;;11.33;52.96
4745;BME280;2386;42.138;24.746;2022-11-27T11:39:24;100582.38;;;11.43;54.05
4745;BME280;2386;42.138;24.746;2022-11-27T11:41:51;100578.16;;;11.60;53.89
4745;BME280;2386;42.138;24.746;2022-11-27T11:44:22;100576.34;;;11.99;53.10
4745;BME280;2386;42.138;24.746;2022-11-27T11:46:51;100561.22;;;12.09;51.61
4745;BME280;2386;42.138;24.746;2022-11-27T11:49:24;100565.34;;;12.25;52.34
4745;BME280;2386;42.138;24.746;2022-11-27T11:52:11;100555.94;;;12.21;50.63
4745;BME280;2386;42.138;24.746;2022-11-27T11:54:48;100557.75;;;12.34;50.32
4745;BME280;2386;42.138;24.746;2022-11-27T12:00:42;100557.88;;;12.14;49.33
4745;BME280;2386;42.138;24.746;2022-11-27T12:06:04;100541.19;;;12.35;50.95
4745;BME280;2386;42.138;24.746;2022-11-27T12:11:13;100541.16;;;12.67;49.12
4745;BME280;2386;42.138;24.746;2022-11-27T12:28:44;100530.03;;;12.93;48.49
4745;BME280;2386;42.138;24.746;2022-11-27T12:34:05;100529.72;;;12.83;47.70
4745;BME280;2386;42.138;24.746;2022-11-27T12:39:23;100523.97;;;12.16;47.54
4745;BME280;2386;42.138;24.746;2022-11-27T12:42:26;100530.31;;;12.35;47.03
4745;BME280;2386;42.138;24.746;2022-11-27T12:47:30;100513.78;;;12.37;46.44
4745;BME280;2386;42.138;24.746;2022-11-27T12:50:19;100511.22;;;12.42;46.52
4745;BME280;2386;42.138;24.746;2022-11-27T12:52:59;100510.00;;;12.63;45.20
4745;BME280;2386;42.138;24.746;2022-11-27T12:55:29;100516.81;;;12.72;43.95
4745;BME280;2386;42.138;24.746;2022-11-27T12:58:16;100514.38;;;12.64;45.21
4745;BME280;2386;42.138;24.746;2022-11-27T13:00:46;100514.25;;;12.59;47.02
4745;BME280;2386;42.138;24.746;2022-11-27T13:06:08;100508.13;;;12.38;43.97
4745;BME280;2386;42.138;24.746;2022-11-27T13:11:05;100521.66;;;12.45;44.23
4745;BME280;2386;42.138;24.746;2022-11-27T13:13:37;100512.00;;;12.49;46.27
4745;BME280;2386;42.138;24.746;2022-11-27T13:18:34;100515.66;;;12.36;45.43
4745;BME280;2386;42.138;24.746;2022-11-27T13:21:04;100507.56;;;12.30;45.18
4745;BME280;2386;42.138;24.746;2022-11-27T13:23:32;100498.38;;;12.24;44.34
4745;BME280;2386;42.138;24.746;2022-11-27T13:26:00;100507.31;;;12.31;46.15
4745;BME280;2386;42.138;24.746;2022-11-27T13:28:41;100513.28;;;12.46;44.77
4745;BME280;2386;42.138;24.746;2022-11-27T13:31:16;100514.34;;;12.45;44.08
4745;BME280;2386;42.138;24.746;2022-11-27T13:33:43;100504.50;;;12.44;46.83
4745;BME280;2386;42.138;24.746;2022-11-27T13:36:22;100518.13;;;12.44;44.80
4745;BME280;2386;42.138;24.746;2022-11-27T13:38:54;100515.06;;;12.34;45.09
4745;BME280;2386;42.138;24.746;2022-11-27T13:41:23;100509.44;;;12.29;44.94
4745;BME280;2386;42.138;24.746;2022-11-27T13:43:50;100510.22;;;12.36;43.95
4745;BME280;2386;42.138;24.746;2022-11-27T13:46:26;100511.00;;;12.43;43.59
4745;BME280;2386;42.138;24.746;2022-11-27T13:49:35;100505.84;;;12.35;46.12
4745;BME280;2386;42.138;24.746;2022-11-27T13:51:41;100490.31;;;12.11;47.19
4745;BME280;2386;42.138;24.746;2022-11-27T13:54:17;100505.97;;;12.15;46.40
4745;BME280;2386;42.138;24.746;2022-11-27T13:56:44;100509.09;;;12.19;44.47
4745;BME280;2386;42.138;24.746;2022-11-27T13:59:21;100500.75;;;12.14;46.31
4745;BME280;2386;42.138;24.746;2022-11-27T14:01:58;100499.34;;;12.05;46.71
4745;BME280;2386;42.138;24.746;2022-11-27T14:07:50;100499.31;;;11.80;48.66
4745;BME280;2386;42.138;24.746;2022-11-27T14:10:20;100496.78;;;11.72;48.62
4745;BME280;2386;42.138;24.746;2022-11-27T14:13:03;100493.25;;;11.71;49.76
4745;BME280;2386;42.138;24.746;2022-11-27T14:15:32;100499.34;;;11.60;49.59
4745;BME280;2386;42.138;24.746;2022-11-27T14:18:19;100502.91;;;11.61;49.84
4745;BME280;2386;42.138;24.746;2022-11-27T14:21:04;100497.50;;;11.54;48.68
4745;BME280;2386;42.138;24.746;2022-11-27T14:23:55;100490.41;;;11.53;49.65
4745;BME280;2386;42.138;24.746;2022-11-27T14:26:22;100500.28;;;11.41;50.60
4745;BME280;2386;42.138;24.746;2022-11-27T14:28:53;100485.47;;;11.30;50.48
4745;BME280;2386;42.138;24.746;2022-11-27T14:31:29;100499.66;;;11.39;49.61
4745;BME280;2386;42.138;24.746;2022-11-27T14:33:56;100497.59;;;11.28;50.93
4745;BME280;2386;42.138;24.746;2022-11-27T14:36:27;100495.06;;;11.33;50.25
4745;BME280;2386;42.138;24.746;2022-11-27T14:38:55;100495.47;;;11.36;49.66
4745;BME280;2386;42.138;24.746;2022-11-27T14:41:25;100498.22;;;11.30;51.03
4745;BME280;2386;42.138;24.746;2022-11-27T14:44:13;100497.59;;;11.28;50.47
4745;BME280;2386;42.138;24.746;2022-11-27T14:46:39;100496.78;;;11.20;50.37
4745;BME280;2386;42.138;24.746;2022-11-27T14:49:05;100500.75;;;11.25;49.88
4745;BME280;2386;42.138;24.746;2022-11-27T14:51:34;100497.41;;;11.23;50.34
4745;BME280;2386;42.138;24.746;2022-11-27T14:54:24;100491.34;;;11.20;51.16
4745;BME280;2386;42.138;24.746;2022-11-27T14:56:51;100491.78;;;11.17;51.63
4745;BME280;2386;42.138;24.746;2022-11-27T14:59:22;100485.50;;;11.17;51.45
4745;BME280;2386;42.138;24.746;2022-11-27T15:02:13;100494.22;;;11.39;51.24
4745;BME280;2386;42.138;24.746;2022-11-27T15:04:43;100490.03;;;11.43;51.08
4745;BME280;2386;42.138;24.746;2022-11-27T15:07:24;100487.13;;;11.38;49.75
4745;BME280;2386;42.138;24.746;2022-11-27T15:09:54;100485.69;;;11.29;52.46